Time;durP1;ratioP1;P1;durP2;ratioP2;P2;SDS_P1;SDS_P2;PMS_P1;PMS_P2;Temp;Humidity;BMP_temperature;BMP_pressure;BME280_temperature;BME280_humidity;BME280_pressure;Samples;Min_cycle;Max_cycle;Signal;HPM_P1;HPM_P2
2021/07/04 00:00:22;;;;;;;17.60;13.15;;;17.40;99.90;;;;;;4990554;28;20038;-71
2021/07/04 00:02:51;;;;;;;18.23;14.48;;;17.60;99.90;;;;;;4991941;28;20027;-70
2021/07/04 00:05:18;;;;;;;15.60;12.02;;;17.60;99.90;;;;;;4991934;28;20097;-71
2021/07/04 00:07:45;;;;;;;14.07;11.90;;;17.60;99.90;;;;;;4991076;28;20180;-71
2021/07/04 00:10:13;;;;;;;15.57;12.00;;;17.50;99.90;;;;;;4991214;28;20046;-72
2021/07/04 00:12:39;;;;;;;14.45;12.68;;;17.50;99.90;;;;;;4991711;28;20034;-72
2021/07/04 00:15:07;;;;;;;17.60;12.13;;;17.60;99.90;;;;;;4991839;28;20027;-72
2021/07/04 00:17:33;;;;;;;18.30;12.55;;;17.60;99.90;;;;;;4974408;28;20031;-71
2021/07/04 00:19:59;;;;;;;16.48;11.90;;;17.70;99.90;;;;;;4991176;28;20038;-71
2021/07/04 00:22:25;;;;;;;12.50;9.30;;;17.60;99.90;;;;;;4991692;28;20018;-71
2021/07/04 00:24:50;;;;;;;8.50;7.70;;;17.50;99.90;;;;;;4991159;28;20022;-71
2021/07/04 00:27:16;;;;;;;11.00;8.95;;;17.40;99.90;;;;;;4992924;28;20039;-72
2021/07/04 00:29:42;;;;;;;9.73;8.80;;;17.40;99.90;;;;;;4974078;28;20030;-71
2021/07/04 00:32:07;;;;;;;13.63;8.48;;;17.40;99.90;;;;;;4991739;28;20027;-72
2021/07/04 00:34:33;;;;;;;14.35;9.70;;;17.50;99.90;;;;;;4991616;28;20472;-71
2021/07/04 00:36:59;;;;;;;11.73;9.32;;;17.60;99.90;;;;;;4973263;28;20488;-72
2021/07/04 00:39:24;;;;;;;14.07;10.02;;;17.50;99.90;;;;;;4990538;28;20409;-71
2021/07/04 00:41:50;;;;;;;12.95;10.05;;;17.60;99.90;;;;;;4991232;28;20489;-71
2021/07/04 00:44:16;;;;;;;11.20;9.68;;;17.50;99.90;;;;;;4991255;28;20026;-72
2021/07/04 00:46:41;;;;;;;14.02;9.52;;;17.50;99.90;;;;;;4973951;28;20022;-72
2021/07/04 00:49:07;;;;;;;11.23;10.07;;;17.50;99.90;;;;;;4991400;28;20026;-72
2021/07/04 00:51:33;;;;;;;11.25;9.50;;;17.50;99.90;;;;;;4990591;28;20105;-71
2021/07/04 00:53:58;;;;;;;12.30;9.70;;;17.40;99.90;;;;;;4990924;28;20031;-71
2021/07/04 00:56:25;;;;;;;12.35;10.90;;;17.40;99.90;;;;;;4991134;28;20026;-71
2021/07/04 00:58:50;;;;;;;13.52;11.20;;;17.60;99.90;;;;;;4990472;28;20039;-72
2021/07/04 01:01:16;;;;;;;15.73;11.38;;;17.60;99.90;;;;;;4990536;28;20030;-72
2021/07/04 01:03:41;;;;;;;17.42;11.73;;;17.60;99.90;;;;;;4991146;28;20034;-72
2021/07/04 01:06:07;;;;;;;15.50;12.10;;;17.50;99.90;;;;;;4973678;28;20033;-72
2021/07/04 01:08:33;;;;;;;19.00;10.80;;;17.50;99.90;;;;;;4990379;28;20022;-71
2021/07/04 01:11:01;;;;;;;19.65;11.07;;;17.40;99.90;;;;;;4990615;28;20117;-71
2021/07/04 01:13:27;;;;;;;12.88;9.98;;;17.40;99.90;;;;;;4990942;28;20027;-72
2021/07/04 01:15:53;;;;;;;14.48;11.05;;;17.30;99.90;;;;;;4990927;28;20038;-71
2021/07/04 01:18:19;;;;;;;16.33;11.65;;;17.30;99.90;;;;;;4990709;28;20480;-72
2021/07/04 01:20:44;;;;;;;18.05;12.32;;;17.30;99.90;;;;;;4990202;28;20029;-72
2021/07/04 01:23:15;;;;;;;19.48;12.82;;;17.30;99.90;;;;;;4990288;28;20026;-71
2021/07/04 01:25:48;;;;;;;15.63;10.90;;;17.30;99.90;;;;;;4990677;28;20048;-72
2021/07/04 01:28:14;;;;;;;13.80;11.20;;;17.30;99.90;;;;;;4990561;28;20033;-71
2021/07/04 01:30:41;;;;;;;13.07;11.18;;;17.20;99.90;;;;;;4990046;28;20027;-71
2021/07/04 01:33:07;;;;;;;15.35;11.63;;;17.10;99.90;;;;;;4990600;28;20027;-72
2021/07/04 01:35:33;;;;;;;13.15;11.20;;;17.20;99.90;;;;;;4973045;28;20023;-71
2021/07/04 01:37:58;;;;;;;11.68;9.80;;;17.20;99.90;;;;;;4972601;28;20050;-71
2021/07/04 01:40:24;;;;;;;17.67;11.77;;;17.20;99.90;;;;;;4987920;28;20052;-71
2021/07/04 01:42:51;;;;;;;16.17;11.73;;;17.20;99.90;;;;;;4973007;28;20105;-71
2021/07/04 01:45:18;;;;;;;14.80;11.38;;;17.30;99.90;;;;;;4990424;28;20022;-72
2021/07/04 01:47:45;;;;;;;13.77;10.48;;;17.30;99.90;;;;;;4988617;28;20065;-71
2021/07/04 01:50:15;;;;;;;12.52;10.75;;;17.20;99.90;;;;;;4989611;28;20034;-71
2021/07/04 01:52:41;;;;;;;21.95;12.07;;;17.20;99.90;;;;;;4989961;28;20037;-71
2021/07/04 01:55:09;;;;;;;20.52;11.35;;;17.30;99.90;;;;;;4990364;28;20023;-71
2021/07/04 01:57:35;;;;;;;18.23;11.85;;;17.10;99.90;;;;;;4990131;28;20031;-72
2021/07/04 02:00:11;;;;;;;13.90;10.95;;;17.10;99.90;;;;;;4989548;28;20030;-72
2021/07/04 02:02:38;;;;;;;14.77;11.27;;;17.10;99.90;;;;;;4990078;28;20037;-72
2021/07/04 02:05:04;;;;;;;16.63;11.48;;;17.10;99.90;;;;;;4990038;28;20026;-71
2021/07/04 02:07:30;;;;;;;16.58;11.52;;;17.10;99.90;;;;;;4989764;28;20019;-72
2021/07/04 02:09:55;;;;;;;18.27;12.65;;;17.10;99.90;;;;;;4989595;28;20023;-72
2021/07/04 02:12:21;;;;;;;17.90;13.15;;;17.10;99.90;;;;;;4990008;28;20098;-72
2021/07/04 02:14:47;;;;;;;18.92;14.00;;;17.20;99.90;;;;;;4990133;28;20026;-72
2021/07/04 02:17:13;;;;;;;22.40;14.48;;;17.20;99.90;;;;;;4972297;28;20033;-72
2021/07/04 02:19:40;;;;;;;19.48;14.75;;;17.20;99.90;;;;;;4971566;28;20045;-72
2021/07/04 02:22:07;;;;;;;21.90;14.93;;;17.10;99.90;;;;;;4989775;28;20101;-72
2021/07/04 02:24:34;;;;;;;16.95;13.07;;;17.10;99.90;;;;;;4990045;28;20124;-72
2021/07/04 02:27:00;;;;;;;16.42;13.43;;;17.00;99.90;;;;;;4972845;28;20023;-72
2021/07/04 02:29:26;;;;;;;24.88;13.55;;;17.00;99.90;;;;;;4989644;28;20041;-72
2021/07/04 02:31:51;;;;;;;15.50;13.18;;;17.00;99.90;;;;;;4990090;28;20026;-71
2021/07/04 02:34:17;;;;;;;17.30;12.50;;;17.00;99.90;;;;;;4990349;28;20023;-72
2021/07/04 02:36:44;;;;;;;13.40;10.93;;;16.90;99.90;;;;;;4991179;28;20468;-71
2021/07/04 02:39:10;;;;;;;15.50;11.57;;;16.90;99.90;;;;;;4989286;28;20128;-72
2021/07/04 02:41:36;;;;;;;15.27;11.93;;;16.80;99.90;;;;;;4988825;28;20026;-72
2021/07/04 02:44:01;;;;;;;11.30;10.20;;;16.90;99.90;;;;;;4972345;28;20029;-72
2021/07/04 02:46:27;;;;;;;15.43;11.40;;;16.90;99.90;;;;;;4989644;28;20430;-72
2021/07/04 02:48:53;;;;;;;20.08;12.13;;;17.00;99.90;;;;;;4989420;28;20088;-73
2021/07/04 02:51:19;;;;;;;16.60;11.50;;;17.00;99.90;;;;;;4970431;28;20026;-72
2021/07/04 02:53:44;;;;;;;13.63;10.63;;;17.00;99.90;;;;;;4988853;28;20038;-72
2021/07/04 02:56:10;;;;;;;18.52;11.35;;;16.90;99.90;;;;;;4989485;28;20460;-72
2021/07/04 02:58:36;;;;;;;22.02;12.90;;;17.00;99.90;;;;;;4990353;28;20441;-72
2021/07/04 03:01:02;;;;;;;13.48;12.15;;;17.00;99.90;;;;;;4993063;28;20080;-72
2021/07/04 03:03:29;;;;;;;18.13;12.23;;;17.00;99.90;;;;;;4989725;28;20052;-72
2021/07/04 03:05:55;;;;;;;19.05;14.07;;;17.00;99.90;;;;;;4989470;28;20031;-71
2021/07/04 03:08:21;;;;;;;18.15;12.40;;;17.00;99.90;;;;;;4989033;28;20038;-71
2021/07/04 03:10:48;;;;;;;21.25;13.25;;;16.90;99.90;;;;;;4988643;28;20652;-71
2021/07/04 03:13:14;;;;;;;22.38;14.75;;;17.00;99.90;;;;;;4989154;28;20471;-71
2021/07/04 03:15:40;;;;;;;20.73;14.77;;;16.90;99.90;;;;;;4989180;28;20066;-71
2021/07/04 03:18:05;;;;;;;19.70;14.05;;;16.90;99.90;;;;;;4989052;28;20117;-73
2021/07/04 03:20:31;;;;;;;19.88;15.27;;;16.90;99.90;;;;;;4988573;28;20025;-72
2021/07/04 03:22:57;;;;;;;17.55;13.65;;;16.90;99.90;;;;;;4988846;28;20034;-72
2021/07/04 03:25:23;;;;;;;22.95;15.25;;;16.80;99.90;;;;;;4989070;28;20039;-72
2021/07/04 03:30:21;;;;;;;19.55;14.13;;;16.80;99.90;;;;;;4997472;28;20042;-73
2021/07/04 03:32:48;;;;;;;21.98;14.40;;;16.70;99.90;;;;;;5006127;28;20064;-71
2021/07/04 03:35:15;;;;;;;22.92;13.55;;;16.70;99.90;;;;;;5008692;28;20030;-71
2021/07/04 03:37:42;;;;;;;22.05;12.85;;;16.70;99.90;;;;;;5008306;28;20036;-72
2021/07/04 03:40:10;;;;;;;16.08;13.13;;;16.60;99.90;;;;;;5007781;28;20030;-72
2021/07/04 03:42:35;;;;;;;12.98;11.27;;;16.40;99.90;;;;;;5007469;28;20475;-72
2021/07/04 03:45:01;;;;;;;20.30;11.85;;;16.30;99.90;;;;;;5007793;28;20026;-72
2021/07/04 03:47:27;;;;;;;20.90;12.32;;;16.30;99.90;;;;;;5008322;28;20365;-71
2021/07/04 03:49:53;;;;;;;15.77;12.35;;;16.40;99.90;;;;;;5006598;28;20172;-71
2021/07/04 03:52:19;;;;;;;17.50;12.65;;;16.40;99.90;;;;;;5007722;28;20029;-71
2021/07/04 03:54:45;;;;;;;17.85;12.02;;;16.40;99.90;;;;;;5008176;28;20379;-72
2021/07/04 03:57:23;;;;;;;16.45;11.80;;;16.40;99.90;;;;;;5008648;28;20018;-71
2021/07/04 03:59:54;;;;;;;14.18;11.57;;;16.30;99.90;;;;;;5006602;28;20037;-73
2021/07/04 04:02:20;;;;;;;13.48;10.90;;;16.30;99.90;;;;;;5008332;28;20433;-73
2021/07/04 04:04:46;;;;;;;10.85;9.75;;;16.30;99.90;;;;;;5011758;28;20093;-73
2021/07/04 04:07:12;;;;;;;16.73;10.88;;;16.30;99.90;;;;;;4994323;28;20475;-71
2021/07/04 04:09:38;;;;;;;15.73;12.00;;;16.50;99.90;;;;;;5010960;28;20030;-72
2021/07/04 04:12:04;;;;;;;16.65;11.55;;;16.50;99.90;;;;;;4993554;28;20061;-72
2021/07/04 04:14:30;;;;;;;24.52;12.63;;;16.60;99.90;;;;;;5010938;28;20048;-72
2021/07/04 04:16:56;;;;;;;22.70;13.82;;;16.70;99.90;;;;;;4993738;28;20462;-72
2021/07/04 04:19:22;;;;;;;18.65;13.15;;;16.80;99.90;;;;;;5010454;28;20061;-73
2021/07/04 04:21:47;;;;;;;19.70;14.27;;;16.80;99.90;;;;;;5011264;28;20022;-75
2021/07/04 04:24:13;;;;;;;18.65;13.48;;;16.80;99.90;;;;;;5011339;28;20437;-73
2021/07/04 04:26:39;;;;;;;18.17;14.38;;;16.80;99.90;;;;;;4993697;28;20599;-73
2021/07/04 04:29:05;;;;;;;19.30;12.23;;;16.80;99.90;;;;;;5010754;28;20029;-73
2021/07/04 04:31:31;;;;;;;22.85;13.77;;;16.70;99.90;;;;;;4993133;28;20078;-73
2021/07/04 04:33:56;;;;;;;15.85;11.98;;;16.70;99.90;;;;;;5011007;28;20581;-72
2021/07/04 04:36:22;;;;;;;17.38;12.68;;;16.70;99.90;;;;;;4993702;28;20037;-72
2021/07/04 04:38:47;;;;;;;20.08;11.32;;;16.70;99.90;;;;;;5011005;28;20547;-73
2021/07/04 04:41:13;;;;;;;13.45;11.18;;;16.80;99.90;;;;;;5010328;28;20026;-73
2021/07/04 04:43:40;;;;;;;13.82;10.77;;;16.90;99.90;;;;;;5011308;28;20030;-72
2021/07/04 04:46:06;;;;;;;16.25;12.27;;;16.80;99.90;;;;;;5010737;28;20022;-72
2021/07/04 04:48:32;;;;;;;13.23;11.65;;;17.00;99.90;;;;;;5010670;28;20025;-71
2021/07/04 04:50:57;;;;;;;12.82;11.13;;;17.10;99.90;;;;;;5009932;28;20033;-73
2021/07/04 04:53:23;;;;;;;14.05;10.50;;;17.20;99.90;;;;;;5010617;28;20544;-73
2021/07/04 04:55:49;;;;;;;16.10;9.75;;;17.10;99.90;;;;;;5010504;28;20033;-72
2021/07/04 04:58:14;;;;;;;10.63;9.52;;;17.10;99.90;;;;;;5010321;28;20026;-73
2021/07/04 05:00:40;;;;;;;10.20;8.90;;;17.00;99.90;;;;;;5009714;28;20028;-73
2021/07/04 05:03:06;;;;;;;14.15;10.25;;;17.30;99.90;;;;;;5010621;28;20026;-72
2021/07/04 05:05:35;;;;;;;17.40;10.20;;;17.50;99.90;;;;;;5010537;28;20022;-72
2021/07/04 05:08:02;;;;;;;9.27;8.30;;;17.60;99.90;;;;;;5010474;28;20026;-72
2021/07/04 05:10:28;;;;;;;9.88;8.02;;;17.60;99.90;;;;;;5009644;28;20030;-71
2021/07/04 05:12:54;;;;;;;10.40;7.90;;;17.70;99.90;;;;;;5010236;28;20071;-72
2021/07/04 05:15:19;;;;;;;10.55;8.63;;;17.80;99.90;;;;;;5009265;28;20033;-72
2021/07/04 05:17:45;;;;;;;9.18;8.27;;;17.90;99.90;;;;;;5010416;28;20061;-71
2021/07/04 05:20:12;;;;;;;8.52;7.63;;;17.90;99.90;;;;;;5009529;28;20026;-73
2021/07/04 05:22:37;;;;;;;9.27;8.38;;;17.90;99.90;;;;;;5010820;28;20026;-71
2021/07/04 05:25:04;;;;;;;8.57;7.72;;;17.90;99.90;;;;;;5009601;28;20030;-71
2021/07/04 05:27:29;;;;;;;10.52;7.82;;;17.80;99.90;;;;;;5011099;28;20498;-72
2021/07/04 05:29:55;;;;;;;9.27;8.38;;;17.60;99.90;;;;;;4992295;28;20038;-71
2021/07/04 05:32:21;;;;;;;12.02;9.00;;;17.70;99.90;;;;;;5010356;28;20033;-72
2021/07/04 05:34:48;;;;;;;10.80;7.82;;;17.70;99.90;;;;;;5010469;28;20017;-72
2021/07/04 05:37:14;;;;;;;8.82;7.90;;;17.70;99.90;;;;;;5010325;28;20559;-72
2021/07/04 05:39:40;;;;;;;8.93;7.80;;;17.60;99.90;;;;;;5009163;28;20794;-72
2021/07/04 05:42:06;;;;;;;10.00;8.98;;;17.60;99.90;;;;;;5010238;28;20102;-71
2021/07/04 05:44:31;;;;;;;8.57;7.65;;;17.70;99.90;;;;;;5009095;28;20022;-71
2021/07/04 05:46:57;;;;;;;9.82;8.25;;;17.70;99.90;;;;;;5010057;28;20030;-72
2021/07/04 05:49:24;;;;;;;12.50;8.60;;;17.60;99.90;;;;;;5009271;28;20118;-72
2021/07/04 05:51:49;;;;;;;8.98;8.18;;;17.50;99.90;;;;;;5009816;28;20030;-72
2021/07/04 05:54:15;;;;;;;9.52;8.05;;;17.50;99.90;;;;;;5009879;28;20036;-72
2021/07/04 05:56:41;;;;;;;9.55;8.50;;;17.40;99.90;;;;;;4992320;28;20040;-72
2021/07/04 05:59:07;;;;;;;11.52;9.20;;;17.40;99.90;;;;;;5009587;28;20497;-72
2021/07/04 06:01:33;;;;;;;11.07;9.30;;;17.50;99.90;;;;;;5008760;28;20026;-73
2021/07/04 06:03:59;;;;;;;11.13;9.27;;;17.70;99.90;;;;;;5009698;28;20537;-73
2021/07/04 06:06:25;;;;;;;10.50;8.65;;;17.80;99.90;;;;;;5008879;28;20030;-71
2021/07/04 06:08:50;;;;;;;10.93;8.77;;;17.80;99.90;;;;;;5009468;28;20026;-72
2021/07/04 06:11:16;;;;;;;11.48;8.48;;;17.80;99.90;;;;;;4991375;28;20120;-71
2021/07/04 06:13:42;;;;;;;9.68;7.82;;;17.80;99.90;;;;;;5009628;28;20021;-71
2021/07/04 06:16:09;;;;;;;8.90;8.05;;;17.90;99.90;;;;;;5009794;28;20028;-73
2021/07/04 06:18:35;;;;;;;10.38;8.00;;;18.00;99.90;;;;;;5009492;28;20029;-72
2021/07/04 06:21:01;;;;;;;8.02;7.22;;;18.10;99.90;;;;;;5008892;28;20105;-72
2021/07/04 06:23:26;;;;;;;8.35;7.53;;;18.20;99.90;;;;;;5010003;28;20056;-72
2021/07/04 06:25:52;;;;;;;10.50;7.78;;;18.20;99.90;;;;;;5009647;28;20033;-72
2021/07/04 06:28:18;;;;;;;9.35;7.13;;;18.20;99.90;;;;;;4994863;28;20034;-72
2021/07/04 06:30:44;;;;;;;7.53;6.72;;;18.30;99.90;;;;;;5008869;28;20045;-72
2021/07/04 06:33:09;;;;;;;8.63;7.82;;;18.70;99.90;;;;;;5004004;28;20034;-72
2021/07/04 06:35:35;;;;;;;17.98;8.07;;;19.10;99.90;;;;;;5010282;28;20071;-74
2021/07/04 06:38:01;;;;;;;7.82;6.70;;;19.40;99.90;;;;;;5016607;28;20033;-75
2021/07/04 06:40:26;;;;;;;10.70;7.15;;;19.60;99.90;;;;;;5017449;28;20021;-73
2021/07/04 06:42:52;;;;;;;8.60;6.45;;;19.40;99.90;;;;;;5019712;28;20014;-72
2021/07/04 06:45:18;;;;;;;7.10;6.40;;;19.00;99.90;;;;;;5018224;28;20017;-73
2021/07/04 06:47:46;;;;;;;6.68;5.97;;;18.70;99.90;;;;;;5016531;28;20380;-72
2021/07/04 06:50:13;;;;;;;6.55;5.70;;;18.80;99.90;;;;;;5014429;28;20040;-72
2021/07/04 06:52:38;;;;;;;7.57;5.30;;;18.90;99.90;;;;;;5017092;28;20021;-74
2021/07/04 06:55:08;;;;;;;6.25;5.68;;;19.10;99.90;;;;;;5015683;28;20030;-73
2021/07/04 06:57:34;;;;;;;9.38;6.35;;;19.00;99.90;;;;;;5013716;28;20030;-72
2021/07/04 07:00:19;;;;;;;7.00;6.30;;;18.80;99.90;;;;;;5013534;28;20026;-72
2021/07/04 07:02:47;;;;;;;8.32;6.43;;;18.90;99.90;;;;;;5008224;28;20022;-72
2021/07/04 07:05:13;;;;;;;7.22;6.18;;;19.60;99.90;;;;;;5007842;28;20018;-70
2021/07/04 07:07:40;;;;;;;6.88;5.68;;;19.90;99.90;;;;;;5007388;28;20075;-72
2021/07/04 07:10:09;;;;;;;6.25;5.65;;;19.70;99.90;;;;;;5007357;28;20097;-72
2021/07/04 07:12:35;;;;;;;6.03;5.43;;;19.90;99.90;;;;;;5008435;28;20109;-71
2021/07/04 07:15:01;;;;;;;7.38;5.97;;;20.00;99.90;;;;;;5008068;28;20093;-71
2021/07/04 07:17:26;;;;;;;7.60;6.50;;;20.00;99.90;;;;;;5008656;28;20105;-71
2021/07/04 07:19:52;;;;;;;7.40;5.88;;;20.20;99.90;;;;;;5007791;28;20475;-71
2021/07/04 07:22:19;;;;;;;6.85;5.90;;;20.10;99.90;;;;;;5008542;28;20440;-72
2021/07/04 07:24:46;;;;;;;8.15;6.00;;;19.90;99.90;;;;;;5007354;28;20026;-72
2021/07/04 07:27:12;;;;;;;5.93;5.43;;;20.00;99.90;;;;;;5008044;28;20030;-70
2021/07/04 07:29:38;;;;;;;11.38;6.25;;;19.80;99.90;;;;;;4988934;28;20079;-71
2021/07/04 07:32:04;;;;;;;7.88;5.93;;;19.90;99.90;;;;;;4988558;28;20037;-70
2021/07/04 07:34:30;;;;;;;11.07;5.72;;;20.30;99.90;;;;;;5015656;28;20025;-72
2021/07/04 07:36:56;;;;;;;6.63;5.88;;;20.40;99.90;;;;;;5027489;28;20543;-71
2021/07/04 07:39:22;;;;;;;6.57;5.97;;;19.90;99.90;;;;;;4996895;28;20076;-71
2021/07/04 07:41:48;;;;;;;6.38;5.13;;;19.60;99.90;;;;;;4991917;28;20023;-72
2021/07/04 07:44:14;;;;;;;5.75;5.25;;;19.70;99.90;;;;;;4999649;28;20060;-71
2021/07/04 07:46:41;;;;;;;6.70;6.10;;;19.90;99.90;;;;;;5011390;28;20046;-71
2021/07/04 07:49:07;;;;;;;9.23;5.50;;;19.70;99.90;;;;;;5009487;28;20105;-72
2021/07/04 07:51:33;;;;;;;6.10;5.55;;;19.90;99.90;;;;;;5010778;28;20463;-71
2021/07/04 07:53:58;;;;;;;6.13;5.50;;;20.10;99.90;;;;;;5011283;28;20030;-72
2021/07/04 07:56:24;;;;;;;6.90;6.18;;;20.40;99.90;;;;;;5011441;28;20034;-73
2021/07/04 07:58:50;;;;;;;7.95;5.22;;;20.90;99.90;;;;;;5002252;28;20022;-71
2021/07/04 08:01:17;;;;;;;7.53;4.95;;;21.10;99.90;;;;;;5022906;28;20753;-74
2021/07/04 08:03:43;;;;;;;6.45;5.22;;;21.10;99.90;;;;;;5021023;28;20130;-73
2021/07/04 08:06:09;;;;;;;6.32;5.68;;;20.40;99.90;;;;;;5011392;28;20497;-72
2021/07/04 08:08:36;;;;;;;5.63;5.13;;;20.20;99.90;;;;;;5010619;28;20061;-73
2021/07/04 08:11:03;;;;;;;5.15;4.75;;;20.30;99.90;;;;;;5010108;28;20391;-70
2021/07/04 08:13:29;;;;;;;7.93;4.68;;;20.60;99.90;;;;;;5010450;28;20034;-73
2021/07/04 08:15:54;;;;;;;6.35;5.40;;;21.00;99.90;;;;;;5010810;28;20448;-72
2021/07/04 08:18:21;;;;;;;5.97;4.90;;;21.40;99.90;;;;;;4993315;28;20030;-72
2021/07/04 08:20:47;;;;;;;6.00;4.68;;;21.50;99.90;;;;;;5009609;28;20041;-72
2021/07/04 08:23:13;;;;;;;6.13;4.85;;;22.10;99.90;;;;;;5002557;28;20531;-72
2021/07/04 08:25:39;;;;;;;7.85;4.60;;;22.80;99.90;;;;;;5016918;28;20041;-72
2021/07/04 08:28:04;;;;;;;4.90;4.43;;;22.90;99.90;;;;;;5012734;28;20030;-72
2021/07/04 08:30:30;;;;;;;11.48;5.45;;;22.80;99.90;;;;;;5012966;28;20376;-72
2021/07/04 08:32:56;;;;;;;5.45;4.60;;;23.20;99.90;;;;;;5012823;28;20592;-75
2021/07/04 08:35:22;;;;;;;4.70;4.20;;;24.00;99.90;;;;;;5012506;28;20108;-75
2021/07/04 08:37:48;;;;;;;5.43;4.90;;;24.60;99.90;;;;;;5015908;28;20567;-76
2021/07/04 08:40:14;;;;;;;4.95;4.43;;;25.10;99.90;;;;;;4994537;28;20049;-76
2021/07/04 08:42:39;;;;;;;5.57;4.55;;;25.30;99.90;;;;;;4993466;28;20105;-73
2021/07/04 08:45:06;;;;;;;5.03;4.53;;;25.70;99.90;;;;;;5010703;28;20109;-72
2021/07/04 08:47:32;;;;;;;4.97;4.57;;;24.90;99.90;;;;;;5010572;28;20083;-71
2021/07/04 08:49:58;;;;;;;4.80;4.43;;;24.60;99.90;;;;;;4990643;28;20404;-71
2021/07/04 08:52:24;;;;;;;4.95;4.25;;;24.00;99.90;;;;;;5010456;28;20038;-75
2021/07/04 08:54:50;;;;;;;4.22;3.92;;;23.50;99.90;;;;;;5010443;28;20536;-73
2021/07/04 08:57:16;;;;;;;5.10;4.53;;;22.90;99.90;;;;;;5010005;28;20548;-73
2021/07/04 08:59:46;;;;;;;5.22;4.72;;;23.20;99.90;;;;;;5009530;28;20033;-73
2021/07/04 09:02:15;;;;;;;7.32;4.53;;;23.00;99.90;;;;;;4992710;28;20075;-72
2021/07/04 09:05:02;;;;;;;4.88;3.63;;;23.20;99.90;;;;;;5010349;28;20022;-73
2021/07/04 09:07:30;;;;;;;4.68;3.90;;;23.40;99.90;;;;;;5010152;28;20049;-71
2021/07/04 09:09:57;;;;;;;4.43;3.40;;;23.90;99.90;;;;;;5009254;28;20117;-71
2021/07/04 09:12:49;;;;;;;2.80;2.70;;;24.40;99.90;;;;;;5009919;28;20029;-74
2021/07/04 09:15:24;;;;;;;3.00;2.70;;;24.20;99.90;;;;;;5009462;28;20032;-71
2021/07/04 09:17:52;;;;;;;3.63;3.33;;;23.90;99.90;;;;;;5009922;28;20391;-72
2021/07/04 09:20:20;;;;;;;3.53;3.22;;;23.90;99.90;;;;;;5008464;28;20029;-74
2021/07/04 09:22:51;;;;;;;3.95;3.65;;;23.80;99.90;;;;;;5010253;28;20464;-74
2021/07/04 09:25:22;;;;;;;4.05;3.70;;;23.70;99.90;;;;;;5010215;28;20038;-72
2021/07/04 09:28:13;;;;;;;3.97;3.63;;;23.60;99.90;;;;;;5010009;28;20026;-74
2021/07/04 09:30:51;;;;;;;5.60;2.85;;;24.50;99.90;;;;;;4999442;23;20050;-73
2021/07/04 09:33:23;;;;;;;4.28;3.60;;;25.10;99.90;;;;;;4978519;28;20023;-73
2021/07/04 09:35:57;;;;;;;3.60;3.40;;;25.80;99.90;;;;;;4975702;28;20030;-72
2021/07/04 09:38:30;;;;;;;3.95;3.75;;;24.70;99.90;;;;;;4970714;28;20590;-73
2021/07/04 09:40:56;;;;;;;3.72;3.17;;;23.60;99.90;;;;;;4970293;28;20031;-73
2021/07/04 09:43:22;;;;;;;4.03;3.50;;;24.00;99.90;;;;;;4970398;28;20035;-71
2021/07/04 09:45:53;;;;;;;2.95;2.75;;;23.80;99.90;;;;;;4970466;28;20018;-72
2021/07/04 09:48:37;;;;;;;3.20;2.50;;;24.60;99.90;;;;;;4972486;28;20069;-73
2021/07/04 09:51:03;;;;;;;3.22;2.90;;;26.20;99.90;;;;;;4981921;28;20034;-74
2021/07/04 09:53:34;;;;;;;3.00;2.80;;;26.70;99.90;;;;;;4987357;28;20023;-73
2021/07/04 09:56:33;;;;;;;3.33;2.85;;;26.00;99.90;;;;;;4987620;28;20023;-74
2021/07/04 09:59:05;;;;;;;3.05;2.80;;;26.50;99.90;;;;;;4965087;28;20035;-72
2021/07/04 10:01:46;;;;;;;3.08;2.88;;;25.50;99.90;;;;;;5043304;28;20023;-74
2021/07/04 10:04:44;;;;;;;3.47;3.08;;;26.00;99.90;;;;;;4974263;28;20041;-73
2021/07/04 10:07:10;;;;;;;3.67;3.38;;;24.80;99.90;;;;;;4981655;28;20042;-73
2021/07/04 10:09:35;;;;;;;3.75;3.50;;;24.80;99.90;;;;;;5037274;28;20030;-72
2021/07/04 10:12:01;;;;;;;3.88;3.67;;;25.00;99.90;;;;;;4971451;28;20030;-73
2021/07/04 10:14:27;;;;;;;5.80;3.40;;;25.50;99.90;;;;;;4971187;28;20100;-72
2021/07/04 10:16:54;;;;;;;3.90;3.60;;;25.60;99.90;;;;;;4953784;28;20477;-73
2021/07/04 10:19:22;;;;;;;3.97;3.67;;;24.80;99.90;;;;;;4970742;28;20106;-73
2021/07/04 10:21:53;;;;;;;4.13;3.45;;;25.30;99.90;;;;;;4970738;28;20056;-73
2021/07/04 10:24:20;;;;;;;4.03;3.72;;;24.70;99.90;;;;;;5037437;28;20023;-74
2021/07/04 10:26:46;;;;;;;3.63;3.40;;;24.80;99.90;;;;;;4983941;28;20046;-74
2021/07/04 10:29:13;;;;;;;3.20;3.00;;;25.60;99.90;;;;;;4991776;28;20104;-74
2021/07/04 10:31:38;;;;;;;3.97;3.47;;;26.00;99.90;;;;;;4994856;28;20045;-73
2021/07/04 10:34:09;;;;;;;4.18;3.75;;;26.10;99.90;;;;;;4989983;28;20026;-73
2021/07/04 10:36:59;;;;;;;4.03;3.63;;;25.20;99.90;;;;;;4990043;28;20038;-74
2021/07/04 10:39:32;;;;;;;3.90;3.60;;;25.20;99.90;;;;;;4987956;28;20037;-74
2021/07/04 10:42:01;;;;;;;4.30;4.00;;;25.20;99.90;;;;;;4990109;28;20552;-74
2021/07/04 10:44:43;;;;;;;3.92;3.72;;;25.30;99.90;;;;;;4993913;28;20168;-73
2021/07/04 10:47:24;;;;;;;3.80;3.50;;;24.90;99.90;;;;;;4997017;28;20052;-76
2021/07/04 10:50:12;;;;;;;4.85;4.10;;;24.10;99.90;;;;;;4997669;28;20101;-74
2021/07/04 10:52:41;;;;;;;5.68;3.88;;;23.80;99.90;;;;;;4996320;28;20155;-75
2021/07/04 10:55:10;;;;;;;3.65;3.35;;;24.10;99.90;;;;;;4980307;28;20549;-74
2021/07/04 10:57:50;;;;;;;4.28;3.92;;;24.20;99.90;;;;;;4981043;28;20411;-72
2021/07/04 11:00:20;;;;;;;6.88;4.20;;;24.30;99.90;;;;;;4983955;28;20026;-75
2021/07/04 11:02:53;;;;;;;3.72;3.50;;;24.20;99.90;;;;;;4998444;28;20071;-74
2021/07/04 11:05:34;;;;;;;3.75;3.55;;;24.30;99.90;;;;;;4984654;28;20029;-74
2021/07/04 11:08:06;;;;;;;4.30;3.90;;;23.80;99.90;;;;;;4977895;28;20034;-75
2021/07/04 11:10:35;;;;;;;4.28;3.97;;;23.90;99.90;;;;;;4985866;28;20094;-72
2021/07/04 11:13:10;;;;;;;4.13;3.60;;;24.20;99.90;;;;;;4975799;28;20080;-75
2021/07/04 11:15:37;;;;;;;4.05;3.75;;;24.40;99.90;;;;;;4974389;28;20019;-72
2021/07/04 11:18:13;;;;;;;4.13;3.83;;;24.80;99.90;;;;;;4975866;28;20069;-73
2021/07/04 11:20:40;;;;;;;4.63;4.10;;;24.60;99.90;;;;;;4974264;28;20026;-74
2021/07/04 11:23:16;;;;;;;4.47;3.92;;;24.70;99.90;;;;;;4989721;28;20415;-73
2021/07/04 11:25:47;;;;;;;5.47;4.25;;;24.90;99.90;;;;;;4955807;28;20480;-74
2021/07/04 11:28:16;;;;;;;4.63;4.32;;;24.90;99.90;;;;;;4954275;28;20058;-74
2021/07/04 11:31:06;;;;;;;4.03;3.65;;;24.40;99.90;;;;;;4954815;28;20039;-74
2021/07/04 11:33:36;;;;;;;5.45;4.43;;;24.00;99.90;;;;;;4958398;28;20031;-74
2021/07/04 11:36:04;;;;;;;4.93;4.43;;;24.10;99.90;;;;;;4938543;28;20667;-76
2021/07/04 11:38:52;;;;;;;4.03;3.83;;;24.30;99.90;;;;;;4954078;28;20035;-76
2021/07/04 11:41:31;;;;;;;4.60;4.20;;;24.50;99.90;;;;;;4966084;28;20039;-74
2021/07/04 11:43:59;;;;;;;6.93;4.25;;;24.00;99.90;;;;;;4956441;28;20031;-78
2021/07/04 11:46:27;;;;;;;4.55;4.25;;;23.90;99.90;;;;;;4984605;28;20019;-77
2021/07/04 11:48:57;;;;;;;4.50;4.20;;;23.40;99.90;;;;;;4976864;28;20504;-75
2021/07/04 11:51:26;;;;;;;4.03;3.72;;;23.60;99.90;;;;;;4973372;28;20030;-76
2021/07/04 11:53:55;;;;;;;4.05;3.70;;;24.20;99.90;;;;;;4974026;28;20532;-77
2021/07/04 11:56:21;;;;;;;4.00;3.70;;;24.40;99.90;;;;;;4967155;28;20042;-76
2021/07/04 11:58:47;;;;;;;4.15;3.85;;;24.50;99.90;;;;;;4989177;28;20030;-75
2021/07/04 12:01:21;;;;;;;4.40;4.10;;;24.80;99.90;;;;;;4974322;28;20094;-76
2021/07/04 12:03:56;;;;;;;4.97;4.10;;;25.20;99.90;;;;;;4983477;28;20022;-74
2021/07/04 12:06:23;;;;;;;4.47;4.07;;;25.50;99.90;;;;;;5039188;28;20032;-75
2021/07/04 12:08:55;;;;;;;4.45;4.05;;;25.50;99.90;;;;;;5093934;28;20075;-76
2021/07/04 12:11:42;;;;;;;6.13;3.70;;;25.50;99.90;;;;;;5084231;28;20029;-79
2021/07/04 12:14:25;;;;;;;4.38;3.97;;;24.80;99.90;;;;;;5071843;28;20039;-78
2021/07/04 12:16:52;;;;;;;5.85;3.80;;;24.20;99.90;;;;;;5085853;28;20035;-76
2021/07/04 12:19:32;;;;;;;5.88;4.10;;;24.50;99.90;;;;;;5079907;28;20032;-74
2021/07/04 12:22:00;;;;;;;4.75;4.35;;;24.70;99.90;;;;;;5076675;28;20024;-76
2021/07/04 12:24:38;;;;;;;4.20;3.90;;;25.50;99.90;;;;;;5023466;28;20034;-75
2021/07/04 12:27:04;;;;;;;3.45;3.25;;;25.80;99.90;;;;;;4972705;28;20385;-76
2021/07/04 12:29:30;;;;;;;3.38;3.17;;;26.10;99.90;;;;;;4994620;28;20046;-75
2021/07/04 12:32:04;;;;;;;4.07;3.70;;;26.30;99.90;;;;;;5018431;28;20402;-76
2021/07/04 12:34:32;;;;;;;4.05;3.30;;;26.20;99.90;;;;;;5074894;28;20029;-75
2021/07/04 12:36:59;;;;;;;3.28;2.90;;;25.30;99.90;;;;;;5074262;28;20501;-75
2021/07/04 12:39:33;;;;;;;2.85;2.60;;;25.90;99.90;;;;;;5076126;28;20025;-75
2021/07/04 12:41:59;;;;;;;4.13;2.80;;;26.00;99.90;;;;;;5075146;28;20100;-77
2021/07/04 12:44:25;;;;;;;3.30;3.00;;;25.20;99.90;;;;;;5057963;28;20571;-76